createdAt,value
2022-11-28T00:01:19.642Z,22.80
2022-11-28T00:03:47.732Z,23.10
2022-11-28T00:06:16.133Z,22.73
2022-11-28T00:08:44.437Z,22.47
2022-11-28T00:11:14.566Z,21.87
2022-11-28T00:13:43.573Z,26.83
2022-11-28T00:16:17.716Z,22.97
2022-11-28T00:18:45.550Z,21.80
2022-11-28T00:21:15.142Z,23.27
2022-11-28T00:23:43.450Z,24.97
2022-11-28T00:26:14.805Z,23.73
2022-11-28T00:28:42.609Z,20.57
2022-11-28T00:31:14.088Z,20.07
2022-11-28T00:33:43.436Z,24.27
2022-11-28T00:36:12.118Z,25.07
2022-11-28T00:38:40.431Z,20.87
2022-11-28T00:41:11.079Z,21.83
2022-11-28T00:43:39.138Z,22.97
2022-11-28T00:46:07.463Z,20.57
2022-11-28T00:48:36.114Z,20.37
2022-11-28T00:51:11.027Z,20.40
2022-11-28T00:53:40.475Z,22.87
2022-11-28T00:56:10.266Z,20.97
2022-11-28T00:58:38.945Z,20.23
2022-11-28T01:01:11.067Z,23.27
2022-11-28T01:03:39.594Z,27.13
2022-11-28T01:06:10.499Z,22.00
2022-11-28T01:08:38.682Z,23.80
2022-11-28T01:11:12.494Z,23.03
2022-11-28T01:13:40.643Z,23.83
2022-11-28T01:16:09.449Z,25.53
2022-11-28T01:18:38.336Z,22.10
2022-11-28T01:21:08.660Z,25.30
2022-11-28T01:23:36.515Z,21.40
2022-11-28T01:26:07.012Z,24.47
2022-11-28T01:28:34.883Z,19.43
2022-11-28T01:31:07.140Z,22.87
2022-11-28T01:33:35.187Z,26.30
2022-11-28T01:36:03.471Z,27.43
2022-11-28T01:38:33.099Z,20.53
2022-11-28T01:41:00.799Z,25.47
2022-11-28T01:43:28.687Z,27.40
2022-11-28T01:45:57.467Z,22.57
2022-11-28T01:48:28.234Z,22.93
2022-11-28T01:50:59.522Z,25.60
2022-11-28T01:53:30.100Z,22.73
2022-11-28T01:56:06.979Z,20.97
2022-11-28T01:58:37.442Z,27.40
2022-11-28T02:01:06.103Z,22.70
2022-11-28T02:03:40.462Z,23.67
2022-11-28T02:06:08.670Z,24.90
2022-11-28T02:08:37.653Z,26.43
2022-11-28T02:11:26.791Z,23.10
2022-11-28T02:14:06.809Z,23.00
2022-11-28T02:16:52.289Z,23.70
2022-11-28T02:20:05.141Z,24.43
2022-11-28T02:22:38.960Z,25.30
2022-11-28T02:25:42.181Z,26.17
2022-11-28T02:28:40.893Z,23.20
2022-11-28T02:31:25.178Z,20.70
2022-11-28T02:33:57.076Z,26.33
2022-11-28T02:36:32.438Z,25.40
2022-11-28T02:39:09.994Z,21.43
2022-11-28T02:41:45.870Z,22.97
2022-11-28T02:44:17.155Z,20.70
2022-11-28T02:46:51.172Z,21.00
2022-11-28T02:49:25.210Z,22.00
2022-11-28T02:51:57.188Z,23.77
2022-11-28T02:54:27.628Z,20.30
2022-11-28T02:56:56.162Z,20.53
2022-11-28T02:59:47.693Z,22.63
2022-11-28T03:02:19.026Z,24.90
2022-11-28T03:04:56.393Z,20.70
2022-11-28T03:07:43.213Z,21.33
2022-11-28T03:10:23.727Z,22.77
2022-11-28T03:13:02.883Z,28.03
2022-11-28T03:15:36.652Z,20.07
2022-11-28T03:18:13.410Z,24.07
2022-11-28T03:20:48.328Z,21.50
2022-11-28T03:23:18.615Z,24.73
2022-11-28T03:25:56.847Z,24.43
2022-11-28T03:28:28.640Z,23.83
2022-11-28T03:31:01.654Z,23.80
2022-11-28T03:33:35.305Z,18.73
2022-11-28T03:36:09.404Z,21.37
2022-11-28T03:38:43.173Z,21.43
2022-11-28T03:41:16.227Z,20.87
2022-11-28T03:43:48.683Z,22.60
2022-11-28T03:46:19.834Z,22.77
2022-11-28T03:48:50.551Z,21.63
2022-11-28T03:51:23.333Z,23.33
2022-11-28T03:53:57.325Z,23.67
2022-11-28T03:56:35.201Z,21.63
2022-11-28T03:59:11.373Z,22.20
2022-11-28T04:01:49.441Z,21.50
2022-11-28T04:04:23.809Z,24.67
2022-11-28T04:06:56.369Z,22.57
2022-11-28T04:09:37.442Z,22.93
2022-11-28T04:12:11.878Z,27.50
2022-11-28T04:14:46.441Z,26.40
2022-11-28T04:17:20.622Z,29.63
2022-11-28T04:19:52.592Z,26.13
2022-11-28T04:22:27.020Z,27.93
2022-11-28T04:24:58.541Z,27.93
2022-11-28T04:27:33.220Z,25.87
2022-11-28T04:30:03.317Z,22.33
2022-11-28T04:32:34.157Z,22.43
2022-11-28T04:35:05.869Z,26.70
2022-11-28T04:37:36.345Z,29.77
2022-11-28T04:40:05.770Z,25.17
2022-11-28T04:42:40.960Z,28.60
2022-11-28T04:45:15.349Z,27.07
2022-11-28T04:47:44.272Z,26.90
2022-11-28T04:50:13.411Z,31.43
2022-11-28T04:52:50.282Z,29.50
2022-11-28T04:55:28.051Z,29.37
2022-11-28T04:58:01.656Z,24.67
2022-11-28T05:00:29.542Z,24.37
2022-11-28T05:02:57.857Z,25.10
2022-11-28T05:05:28.638Z,26.93
2022-11-28T05:07:58.811Z,26.70
2022-11-28T05:10:26.604Z,29.30
2022-11-28T05:12:54.314Z,27.33
2022-11-28T05:15:22.166Z,25.10
2022-11-28T05:17:50.098Z,25.43
2022-11-28T05:20:18.198Z,23.47
2022-11-28T05:22:46.362Z,25.50
2022-11-28T05:25:15.709Z,26.13
2022-11-28T05:27:44.006Z,24.27
2022-11-28T05:30:12.994Z,27.67
2022-11-28T05:32:40.967Z,25.60
2022-11-28T05:35:09.324Z,25.57
2022-11-28T05:37:37.076Z,23.80
2022-11-28T05:40:05.911Z,24.63
2022-11-28T05:42:35.508Z,23.37
2022-11-28T05:45:03.869Z,22.13
2022-11-28T05:47:32.026Z,22.67
2022-11-28T05:49:59.873Z,26.70
2022-11-28T05:52:32.378Z,23.77
2022-11-28T05:55:01.594Z,23.30
2022-11-28T05:57:31.941Z,21.00
2022-11-28T06:00:00.976Z,22.20
2022-11-28T06:02:28.863Z,22.20
2022-11-28T06:04:56.708Z,24.80
2022-11-28T06:07:24.600Z,23.33
2022-11-28T06:09:52.515Z,25.27
2022-11-28T06:12:20.558Z,21.57
2022-11-28T06:14:48.476Z,25.00
2022-11-28T06:17:17.628Z,22.63
2022-11-28T06:19:45.536Z,23.80
2022-11-28T06:22:13.408Z,24.90
2022-11-28T06:24:41.153Z,23.17
2022-11-28T06:27:08.869Z,21.97
2022-11-28T06:29:36.777Z,26.37
2022-11-28T06:32:04.668Z,20.67
2022-11-28T06:34:34.445Z,22.47
2022-11-28T06:37:02.377Z,20.43
2022-11-28T06:39:30.104Z,22.87
2022-11-28T06:41:58.045Z,25.90
2022-11-28T06:44:25.893Z,25.13
2022-11-28T06:46:54.642Z,23.57
2022-11-28T06:49:22.725Z,23.77
2022-11-28T06:51:51.975Z,23.33
2022-11-28T06:54:19.761Z,26.30
2022-11-28T06:56:47.479Z,28.17
2022-11-28T06:59:15.300Z,28.57
2022-11-28T07:01:43.212Z,29.07
2022-11-28T07:04:11.204Z,28.33
2022-11-28T07:06:39.358Z,25.73
2022-11-28T07:09:08.705Z,24.83
2022-11-28T07:11:37.112Z,29.23
2022-11-28T07:14:05.715Z,25.40
2022-11-28T07:16:34.627Z,28.90
2022-11-28T07:19:02.551Z,28.30
2022-11-28T07:21:30.956Z,26.67
2022-11-28T07:23:59.525Z,32.70
2022-11-28T07:26:28.792Z,27.70
2022-11-28T07:28:58.377Z,28.67
2022-11-28T07:31:31.774Z,26.47
2022-11-28T07:34:02.467Z,28.87
2022-11-28T07:36:30.617Z,30.70
2022-11-28T07:39:00.816Z,33.60
2022-11-28T07:41:30.457Z,27.37
2022-11-28T07:43:59.835Z,28.60
2022-11-28T07:46:29.497Z,30.17
2022-11-28T07:48:57.558Z,30.27
2022-11-28T07:51:27.857Z,33.10
2022-11-28T07:53:55.748Z,29.77
2022-11-28T07:56:25.447Z,31.03
2022-11-28T07:58:56.913Z,25.47
2022-11-28T08:01:30.212Z,32.30
2022-11-28T08:03:58.670Z,30.43
2022-11-28T08:06:28.761Z,30.17
2022-11-28T08:08:57.853Z,28.20
2022-11-28T08:11:28.367Z,29.30
2022-11-28T08:14:00.771Z,35.27
2022-11-28T08:16:30.278Z,31.33
2022-11-28T08:19:00.796Z,27.80
2022-11-28T08:21:30.811Z,33.77
2022-11-28T08:24:01.484Z,27.07
2022-11-28T08:26:31.302Z,32.10
2022-11-28T08:29:01.546Z,30.70
2022-11-28T08:31:32.034Z,31.33
2022-11-28T08:34:02.012Z,28.80
2022-11-28T08:36:30.614Z,32.67
2022-11-28T08:39:22.748Z,30.03
2022-11-28T08:41:50.101Z,32.57
2022-11-28T08:44:19.498Z,34.93
2022-11-28T08:46:47.247Z,31.97
2022-11-28T08:49:15.953Z,30.63
2022-11-28T08:51:43.767Z,31.20
2022-11-28T08:54:11.566Z,32.00
2022-11-28T08:56:39.479Z,34.73
2022-11-28T08:59:08.136Z,32.80
2022-11-28T09:01:37.437Z,31.60
2022-11-28T09:04:06.701Z,33.13
2022-11-28T09:06:34.481Z,30.93
2022-11-28T09:09:02.868Z,31.23
2022-11-28T09:11:30.635Z,32.57
2022-11-28T09:13:58.389Z,28.17
2022-11-28T09:16:26.157Z,30.40
2022-11-28T09:18:57.515Z,32.20
2022-11-28T09:21:25.272Z,33.93
2022-11-28T09:23:56.074Z,31.87
2022-11-28T09:26:25.823Z,27.07
2022-11-28T09:28:54.189Z,29.57
2022-11-28T09:31:22.039Z,31.40
2022-11-28T09:33:50.002Z,29.40
2022-11-28T09:36:21.160Z,28.60
2022-11-28T09:38:49.613Z,30.57
2022-11-28T09:41:41.493Z,30.60
2022-11-28T09:44:17.819Z,28.17
2022-11-28T09:46:47.848Z,30.60
2022-11-28T09:49:36.792Z,32.10
2022-11-28T09:52:19.075Z,32.87
2022-11-28T09:54:53.538Z,31.00
2022-11-28T09:57:31.539Z,32.47
2022-11-28T09:59:59.457Z,25.80
2022-11-28T10:02:32.996Z,25.93
2022-11-28T10:05:11.127Z,25.00
2022-11-28T10:07:54.925Z,28.17
2022-11-28T10:10:31.198Z,28.63
2022-11-28T10:13:04.715Z,29.47
2022-11-28T10:15:45.560Z,28.93
2022-11-28T10:18:29.147Z,27.33
2022-11-28T10:21:02.152Z,28.07
2022-11-28T10:23:40.665Z,24.03
2022-11-28T10:26:14.269Z,27.33
2022-11-28T10:28:47.586Z,23.73
2022-11-28T10:31:20.777Z,27.00
2022-11-28T10:33:54.982Z,27.03
2022-11-28T10:36:28.608Z,24.53
2022-11-28T10:38:58.266Z,27.03
2022-11-28T10:41:33.225Z,28.90
2022-11-28T10:44:06.271Z,29.07
2022-11-28T10:46:50.915Z,26.07
2022-11-28T10:49:27.904Z,28.00
2022-11-28T10:52:04.388Z,26.13
2022-11-28T10:54:51.932Z,26.60
2022-11-28T10:57:25.264Z,24.73
2022-11-28T11:00:04.126Z,26.03
2022-11-28T11:02:38.220Z,30.63
2022-11-28T11:05:07.897Z,28.10
2022-11-28T11:07:35.942Z,26.67
2022-11-28T11:10:15.285Z,27.80
2022-11-28T11:12:44.619Z,29.70
2022-11-28T11:15:19.049Z,24.83
2022-11-28T11:17:46.814Z,27.97
2022-11-28T11:20:34.804Z,28.27
2022-11-28T11:23:04.605Z,28.23
2022-11-28T11:25:34.629Z,28.43
2022-11-28T11:28:05.628Z,26.90
2022-11-28T11:30:36.464Z,26.43
2022-11-28T11:33:06.992Z,26.17
2022-11-28T11:35:37.273Z,28.67
2022-11-28T11:38:20.023Z,29.20
2022-11-28T11:40:50.303Z,24.37
2022-11-28T11:43:30.179Z,30.10
2022-11-28T11:46:16.692Z,27.10
2022-11-28T11:48:46.091Z,26.57
2022-11-28T11:51:24.846Z,28.67
2022-11-28T11:54:04.094Z,27.90
2022-11-28T11:56:38.335Z,28.50
2022-11-28T11:59:13.213Z,28.13
2022-11-28T12:01:43.296Z,29.27
2022-11-28T12:04:43.756Z,28.00
2022-11-28T12:07:19.649Z,31.17
2022-11-28T12:09:52.662Z,23.67
2022-11-28T12:12:26.600Z,28.10
2022-11-28T12:14:54.377Z,28.07
2022-11-28T12:17:52.391Z,25.87
2022-11-28T12:20:38.785Z,26.53
2022-11-28T12:23:21.103Z,28.43
2022-11-28T12:25:54.588Z,30.20
2022-11-28T12:28:40.296Z,24.97
2022-11-28T12:31:19.083Z,30.87
2022-11-28T12:33:58.874Z,25.43
2022-11-28T12:36:34.997Z,28.70
2022-11-28T12:39:18.824Z,30.33
2022-11-28T12:42:09.217Z,27.73
2022-11-28T12:44:54.211Z,27.27
2022-11-28T12:47:32.153Z,26.43
2022-11-28T12:50:11.648Z,24.67
2022-11-28T12:52:48.837Z,27.17
2022-11-28T12:55:27.081Z,26.07
2022-11-28T12:58:06.558Z,26.67
2022-11-28T13:00:49.680Z,25.30
2022-11-28T13:03:35.442Z,29.60
2022-11-28T13:06:18.154Z,25.73
2022-11-28T13:08:58.885Z,24.77
2022-11-28T13:11:57.065Z,26.97
2022-11-28T13:14:37.219Z,24.20
2022-11-28T13:17:24.194Z,26.00
2022-11-28T13:20:00.921Z,25.30
2022-11-28T13:22:39.382Z,24.73
2022-11-28T13:25:20.527Z,28.90
2022-11-28T13:27:56.385Z,30.47
2022-11-28T13:30:27.175Z,31.17
2022-11-28T13:33:05.558Z,31.00
2022-11-28T13:35:35.238Z,32.23
2022-11-28T13:41:02.018Z,29.43
2022-11-28T13:43:46.398Z,31.77
2022-11-28T13:46:17.808Z,30.87
2022-11-28T13:49:20.224Z,34.07
2022-11-28T13:51:49.128Z,32.67
2022-11-28T13:54:48.818Z,31.53
2022-11-28T13:57:39.055Z,36.17
2022-11-28T14:00:22.814Z,33.30
2022-11-28T14:02:54.779Z,32.33
2022-11-28T14:05:30.187Z,35.40
2022-11-28T14:07:59.030Z,34.10
2022-11-28T14:10:51.978Z,31.20
2022-11-28T14:13:57.019Z,37.07
2022-11-28T14:16:46.857Z,31.57
2022-11-28T14:19:34.749Z,32.90
2022-11-28T14:22:18.140Z,33.70
2022-11-28T14:24:56.437Z,32.43
2022-11-28T14:27:27.075Z,35.47
2022-11-28T14:29:57.910Z,35.47
2022-11-28T14:32:34.314Z,34.10
2022-11-28T14:35:02.918Z,34.90
2022-11-28T14:37:50.178Z,35.17
2022-11-28T14:41:06.148Z,34.77
2022-11-28T14:43:36.406Z,36.47
2022-11-28T14:46:26.712Z,34.47
2022-11-28T14:49:23.446Z,35.30
2022-11-28T14:52:38.830Z,37.13
2022-11-28T14:55:18.712Z,34.03
2022-11-28T14:57:55.971Z,34.50
2022-11-28T15:00:26.382Z,35.87
2022-11-28T15:03:19.068Z,39.57
2022-11-28T15:05:49.023Z,35.90
2022-11-28T15:08:39.311Z,35.13
2022-11-28T15:11:22.312Z,40.87
2022-11-28T15:14:03.073Z,36.83
2022-11-28T15:16:33.223Z,37.83
2022-11-28T15:19:07.471Z,36.27
2022-11-28T15:21:44.923Z,38.63
2022-11-28T15:24:24.797Z,39.00
2022-11-28T15:26:57.642Z,37.97
2022-11-28T15:29:27.847Z,36.40
2022-11-28T15:31:57.802Z,36.90
2022-11-28T15:34:28.445Z,33.73
2022-11-28T15:36:58.037Z,32.07
2022-11-28T15:39:30.188Z,37.50
2022-11-28T15:42:02.805Z,40.37
2022-11-28T15:44:31.089Z,35.27
2022-11-28T15:46:59.286Z,38.63
2022-11-28T15:49:30.347Z,38.03
2022-11-28T15:52:00.919Z,33.73
2022-11-28T15:54:37.467Z,37.97
2022-11-28T15:57:07.408Z,43.57
2022-11-28T15:59:35.263Z,37.97
2022-11-28T16:02:14.118Z,37.37
2022-11-28T16:04:42.891Z,40.67
2022-11-28T16:07:15.304Z,39.13
2022-11-28T16:09:54.861Z,39.07
2022-11-28T16:12:24.689Z,39.63
2022-11-28T16:14:58.795Z,37.13
2022-11-28T16:17:29.389Z,37.27
2022-11-28T16:19:58.224Z,45.37
2022-11-28T16:22:31.518Z,41.53
2022-11-28T16:25:11.695Z,36.13
2022-11-28T16:27:42.831Z,36.50
2022-11-28T16:30:27.425Z,34.57
2022-11-28T16:32:56.907Z,36.90
2022-11-28T16:35:30.219Z,40.83
2022-11-28T16:38:15.449Z,44.27
2022-11-28T16:40:44.362Z,37.50
2022-11-28T16:43:24.660Z,44.17
2022-11-28T16:46:00.211Z,41.63
2022-11-28T16:48:31.783Z,39.40
2022-11-28T16:51:29.425Z,39.33
2022-11-28T16:53:59.530Z,42.70
2022-11-28T16:56:43.726Z,39.87
2022-11-28T16:59:15.131Z,39.17
2022-11-28T17:01:45.702Z,43.47
2022-11-28T17:04:21.961Z,40.93
2022-11-28T17:06:50.144Z,38.73
2022-11-28T17:09:18.247Z,39.60
2022-11-28T17:11:57.753Z,39.90
2022-11-28T17:14:29.635Z,40.63
2022-11-28T17:16:57.480Z,42.63
2022-11-28T17:19:25.682Z,40.57
2022-11-28T17:21:55.927Z,37.77
2022-11-28T17:24:26.482Z,43.40
2022-11-28T17:26:55.047Z,40.30
2022-11-28T17:29:25.193Z,41.90
2022-11-28T17:31:55.431Z,42.23
2022-11-28T17:34:26.230Z,40.70
2022-11-28T17:36:55.077Z,41.07
2022-11-28T17:39:23.203Z,37.37
2022-11-28T17:41:51.308Z,45.53
2022-11-28T17:44:21.456Z,39.93
2022-11-28T17:46:50.152Z,42.77
2022-11-28T17:49:20.240Z,39.50
2022-11-28T17:51:48.111Z,46.67
2022-11-28T17:54:18.505Z,46.13
2022-11-28T17:56:47.174Z,42.13
2022-11-28T17:59:15.985Z,38.53
2022-11-28T18:01:44.512Z,44.80
2022-11-28T18:04:12.782Z,47.37
2022-11-28T18:06:44.010Z,40.83
2022-11-28T18:09:13.007Z,47.77
2022-11-28T18:11:41.191Z,45.10
2022-11-28T18:14:09.529Z,50.83
2022-11-28T18:16:37.473Z,46.20
2022-11-28T18:19:05.627Z,48.23
2022-11-28T18:21:33.504Z,48.03
2022-11-28T18:24:02.666Z,47.53
2022-11-28T18:26:30.440Z,52.10
2022-11-28T18:28:58.236Z,46.87
2022-11-28T18:31:28.319Z,44.47
2022-11-28T18:34:01.587Z,49.83
2022-11-28T18:36:31.217Z,42.63
2022-11-28T18:39:00.730Z,48.10
2022-11-28T18:41:30.761Z,49.23
2022-11-28T18:43:59.471Z,49.80
2022-11-28T18:46:27.751Z,48.90
2022-11-28T18:48:55.521Z,46.63
2022-11-28T18:51:26.302Z,49.03
2022-11-28T18:53:55.784Z,52.73
2022-11-28T18:56:24.082Z,47.00
2022-11-28T18:58:55.041Z,49.83
2022-11-28T19:01:28.287Z,49.93
2022-11-28T19:03:57.773Z,57.97
2022-11-28T19:06:26.297Z,47.43
2022-11-28T19:08:55.253Z,49.57
2022-11-28T19:11:23.156Z,52.73
2022-11-28T19:13:53.336Z,54.90
2022-11-28T19:16:24.952Z,55.40
2022-11-28T19:18:53.101Z,52.53
2022-11-28T19:21:23.187Z,51.10
2022-11-28T19:23:52.039Z,53.60
2022-11-28T19:26:22.058Z,50.87
2022-11-28T19:28:50.538Z,51.67
2022-11-28T19:31:21.181Z,48.90
2022-11-28T19:34:00.822Z,51.53
2022-11-28T19:36:30.067Z,50.57
2022-11-28T19:38:58.410Z,48.40
2022-11-28T19:41:26.546Z,57.87
2022-11-28T19:43:54.417Z,50.57
2022-11-28T19:46:22.549Z,49.20
2022-11-28T19:48:51.874Z,50.20
2022-11-28T19:51:20.263Z,51.83
2022-11-28T19:53:48.545Z,51.73
2022-11-28T19:56:18.217Z,54.13
2022-11-28T19:58:47.459Z,49.53
2022-11-28T20:01:17.445Z,51.93
2022-11-28T20:03:47.581Z,52.27
2022-11-28T20:06:19.137Z,48.90
2022-11-28T20:08:48.211Z,49.63
2022-11-28T20:11:20.664Z,51.93
2022-11-28T20:13:49.468Z,53.23
2022-11-28T20:16:18.752Z,52.20
2022-11-28T20:18:47.095Z,55.17
2022-11-28T20:21:18.399Z,53.53
2022-11-28T20:23:49.318Z,55.07
2022-11-28T20:26:18.733Z,54.33
2022-11-28T20:28:47.502Z,53.90
2022-11-28T20:31:20.355Z,49.53
2022-11-28T20:33:48.706Z,52.50
2022-11-28T20:36:20.126Z,54.17
2022-11-28T20:38:48.404Z,48.97
2022-11-28T20:41:18.157Z,50.17
2022-11-28T20:43:46.252Z,50.73
2022-11-28T20:46:16.739Z,53.73
2022-11-28T20:48:44.540Z,51.27
2022-11-28T20:51:13.601Z,51.83
2022-11-28T20:53:47.221Z,47.53
2022-11-28T20:56:17.085Z,52.20
2022-11-28T20:58:45.450Z,47.67
2022-11-28T21:01:15.357Z,47.93
2022-11-28T21:03:43.386Z,50.03
2022-11-28T21:06:11.746Z,46.90
2022-11-28T21:08:40.138Z,48.93
2022-11-28T21:11:10.827Z,47.83
2022-11-28T21:13:38.902Z,51.83
2022-11-28T21:16:08.292Z,52.50
2022-11-28T21:18:38.059Z,51.03
2022-11-28T21:21:08.536Z,48.70
2022-11-28T21:23:36.450Z,50.57
2022-11-28T21:26:06.470Z,49.47
2022-11-28T21:28:36.693Z,49.40
2022-11-28T21:31:06.708Z,49.30
2022-11-28T21:33:34.565Z,47.27
2022-11-28T21:36:03.282Z,52.03
2022-11-28T21:38:31.585Z,50.33
2022-11-28T21:41:00.256Z,47.87
2022-11-28T21:43:29.677Z,58.00
2022-11-28T21:46:04.241Z,51.23
2022-11-28T21:48:33.332Z,49.23
2022-11-28T21:51:05.475Z,51.57
2022-11-28T21:53:35.201Z,44.23
2022-11-28T21:56:06.283Z,51.13
2022-11-28T21:58:34.060Z,49.90
2022-11-28T22:01:05.340Z,46.90
2022-11-28T22:03:33.540Z,49.83
2022-11-28T22:06:02.722Z,48.07
2022-11-28T22:08:31.329Z,47.33
2022-11-28T22:11:01.220Z,49.33
2022-11-28T22:13:29.313Z,49.13
2022-11-28T22:15:57.793Z,54.37
2022-11-28T22:18:27.187Z,52.50
2022-11-28T22:21:02.183Z,44.30
2022-11-28T22:23:30.248Z,44.50
2022-11-28T22:25:58.121Z,45.93
2022-11-28T22:28:25.817Z,42.97
2022-11-28T22:30:53.968Z,46.30
2022-11-28T22:33:21.716Z,45.80
2022-11-28T22:35:50.878Z,47.93
2022-11-28T22:38:18.933Z,42.33
2022-11-28T22:40:46.641Z,45.93
2022-11-28T22:43:14.418Z,44.13
2022-11-28T22:45:42.242Z,43.70
2022-11-28T22:48:10.102Z,45.00
2022-11-28T22:50:40.420Z,40.67
2022-11-28T22:53:09.741Z,45.17
2022-11-28T22:55:37.531Z,48.30
2022-11-28T22:58:05.257Z,43.90
2022-11-28T23:00:33.183Z,46.10
2022-11-28T23:03:02.073Z,44.20
2022-11-28T23:05:29.952Z,46.67
2022-11-28T23:07:57.712Z,40.37
2022-11-28T23:10:26.875Z,45.73
2022-11-28T23:12:54.702Z,43.27
2022-11-28T23:15:22.550Z,45.07
2022-11-28T23:17:50.930Z,43.53
2022-11-28T23:20:19.228Z,39.30
2022-11-28T23:22:46.940Z,43.03
2022-11-28T23:25:15.298Z,44.00
2022-11-28T23:27:44.410Z,40.03
2022-11-28T23:30:12.829Z,41.27
2022-11-28T23:32:40.581Z,40.73
2022-11-28T23:35:08.705Z,41.70
2022-11-28T23:37:39.368Z,39.80
2022-11-28T23:40:08.939Z,42.13
2022-11-28T23:42:36.719Z,40.97
2022-11-28T23:45:07.010Z,44.37
2022-11-28T23:47:34.669Z,44.67
2022-11-28T23:50:02.441Z,44.77
2022-11-28T23:52:30.250Z,37.47
2022-11-28T23:54:57.896Z,39.63
2022-11-28T23:57:25.625Z,40.80
2022-11-28T23:59:53.433Z,39.30
